Metar Aviation Weather Data ENAL

15°C Temp
5°C Dewpoint
% Humidity
Temperature
21 KM/H
13 MPH
11 KTS
130°
South East

Wind Speed
Clear
Conditions
Pressure 1012.92 (hPa) - 29.91 (in)
Visibility 6.2 (mi) - 10 (km)

Current Conditions
ENAL
Metar :ENAL 252120Z 13011KT CAVOK 15/05 Q1013
Thu 25th April 23:20 pm

  Metar Aviation API Data Provided by https://www.checkwx.com/ PHP scripts by weather34.com ©2019